createdAt,value
2022-09-01T00:00:54.674Z,62.64
2022-09-01T00:01:56.868Z,62.60
2022-09-01T00:02:58.503Z,62.54
2022-09-01T00:04:04.272Z,62.60
2022-09-01T00:05:07.460Z,63.32
2022-09-01T00:06:10.269Z,63.12
2022-09-01T00:07:13.990Z,63.28
2022-09-01T00:08:15.507Z,63.63
2022-09-01T00:09:22.422Z,63.64
2022-09-01T00:10:24.115Z,63.50
2022-09-01T00:11:27.611Z,63.25
2022-09-01T00:12:30.770Z,63.20
2022-09-01T00:13:33.922Z,63.40
2022-09-01T00:14:41.542Z,64.04
2022-09-01T00:15:43.620Z,64.13
2022-09-01T00:16:45.183Z,64.62
2022-09-01T00:17:49.381Z,64.61
2022-09-01T00:18:53.406Z,64.79
2022-09-01T00:19:54.962Z,64.65
2022-09-01T00:20:59.207Z,64.75
2022-09-01T00:22:01.784Z,64.38
2022-09-01T00:23:03.503Z,64.29
2022-09-01T00:24:05.725Z,64.51
2022-09-01T00:25:08.150Z,64.62
2022-09-01T00:26:09.709Z,64.43
2022-09-01T00:27:11.574Z,64.50
2022-09-01T00:28:14.506Z,64.42
2022-09-01T00:29:16.242Z,64.50
2022-09-01T00:30:21.962Z,65.13
2022-09-01T00:31:24.478Z,65.31
2022-09-01T00:32:26.761Z,65.01
2022-09-01T00:33:28.776Z,64.75
2022-09-01T00:34:31.183Z,65.50
2022-09-01T00:35:37.089Z,65.79
2022-09-01T00:36:39.040Z,66.14
2022-09-01T00:37:40.696Z,66.16
2022-09-01T00:38:42.835Z,65.75
2022-09-01T00:39:44.383Z,65.85
2022-09-01T00:40:46.016Z,65.87
2022-09-01T00:41:47.988Z,65.97
2022-09-01T00:42:49.815Z,65.85
2022-09-01T00:44:00.180Z,66.05
2022-09-01T00:45:01.644Z,66.22
2022-09-01T00:46:04.652Z,66.14
2022-09-01T00:47:07.114Z,66.37
2022-09-01T00:48:09.485Z,66.29
2022-09-01T00:49:17.761Z,66.24
2022-09-01T00:50:20.847Z,66.25
2022-09-01T00:51:22.691Z,66.15
2022-09-01T00:52:48.197Z,65.98
2022-09-01T00:53:49.992Z,66.11
2022-09-01T00:54:58.136Z,66.34
2022-09-01T00:56:00.525Z,66.27
2022-09-01T00:57:04.266Z,66.37
2022-09-01T00:58:19.456Z,66.21
2022-09-01T00:59:23.738Z,66.46
2022-09-01T01:00:29.878Z,66.88
2022-09-01T01:01:31.600Z,66.52
2022-09-01T01:02:33.424Z,66.60
2022-09-01T01:03:35.922Z,66.79
2022-09-01T01:04:37.561Z,66.95
2022-09-01T01:05:46.766Z,67.09
2022-09-01T01:06:58.783Z,67.13
2022-09-01T01:08:03.861Z,66.79
2022-09-01T01:09:05.631Z,67.15
2022-09-01T01:10:07.668Z,67.11
2022-09-01T01:11:19.614Z,67.10
2022-09-01T01:12:21.284Z,66.83
2022-09-01T01:13:26.025Z,67.00
2022-09-01T01:14:31.957Z,66.64
2022-09-01T01:15:33.634Z,66.53
2022-09-01T01:16:35.923Z,66.36
2022-09-01T01:17:37.587Z,66.48
2022-09-01T01:18:39.387Z,66.55
2022-09-01T01:20:07.151Z,66.36
2022-09-01T01:21:43.376Z,67.12
2022-09-01T01:23:03.601Z,66.52
2022-09-01T01:24:23.470Z,66.71
2022-09-01T01:25:25.571Z,67.06
2022-09-01T01:26:27.297Z,67.55
2022-09-01T01:27:33.711Z,67.34
2022-09-01T01:28:44.749Z,67.01
2022-09-01T01:29:47.712Z,67.89
2022-09-01T01:30:52.664Z,68.57
2022-09-01T01:31:54.325Z,68.44
2022-09-01T01:32:58.396Z,68.54
2022-09-01T01:34:01.101Z,68.75
2022-09-01T01:35:05.875Z,68.51
2022-09-01T01:36:14.268Z,68.49
2022-09-01T01:37:15.756Z,68.61
2022-09-01T01:38:20.026Z,68.19
2022-09-01T01:39:28.710Z,68.52
2022-09-01T01:40:30.975Z,68.60
2022-09-01T01:41:35.480Z,68.25
2022-09-01T01:42:37.932Z,68.72
2022-09-01T01:43:40.702Z,68.88
2022-09-01T01:44:42.589Z,68.96
2022-09-01T01:45:44.122Z,68.33
2022-09-01T01:46:50.267Z,68.46
2022-09-01T01:47:53.550Z,68.54
2022-09-01T01:48:55.818Z,68.44
2022-09-01T01:49:57.946Z,69.00
2022-09-01T01:50:59.673Z,68.87
2022-09-01T01:52:01.662Z,68.52
2022-09-01T01:53:10.942Z,68.48
2022-09-01T01:54:14.383Z,68.08
2022-09-01T01:55:19.328Z,67.82
2022-09-01T01:56:25.522Z,68.23
2022-09-01T01:57:31.897Z,68.12
2022-09-01T01:58:34.900Z,67.80
2022-09-01T01:59:38.963Z,67.83
2022-09-01T02:00:42.887Z,67.55
2022-09-01T02:01:49.389Z,67.63
2022-09-01T02:02:54.794Z,67.94
2022-09-01T02:04:00.234Z,67.89
2022-09-01T02:05:01.961Z,68.10
2022-09-01T02:06:07.124Z,68.03
2022-09-01T02:07:11.964Z,68.63
2022-09-01T02:08:15.652Z,68.85
2022-09-01T02:09:21.081Z,69.43
2022-09-01T02:10:24.737Z,69.47
2022-09-01T02:11:26.750Z,69.42
2022-09-01T02:12:28.269Z,69.20
2022-09-01T02:13:32.798Z,68.77
2022-09-01T02:14:34.623Z,68.41
2022-09-01T02:15:45.601Z,68.30
2022-09-01T02:16:47.704Z,68.67
2022-09-01T02:17:49.704Z,68.39
2022-09-01T02:18:51.535Z,68.70
2022-09-01T02:19:57.060Z,68.73
2022-09-01T02:21:01.557Z,68.90
2022-09-01T02:22:03.054Z,69.49
2022-09-01T02:23:10.848Z,69.87
2022-09-01T02:24:12.901Z,69.73
2022-09-01T02:25:16.939Z,70.25
2022-09-01T02:26:19.053Z,70.23
2022-09-01T02:27:25.864Z,70.04
2022-09-01T02:28:28.701Z,70.37
2022-09-01T02:29:30.272Z,70.44
2022-09-01T02:30:33.467Z,70.45
2022-09-01T02:31:39.303Z,70.21
2022-09-01T02:32:41.884Z,70.29
2022-09-01T02:33:47.154Z,70.40
2022-09-01T02:34:53.676Z,70.34
2022-09-01T02:36:00.926Z,70.81
2022-09-01T02:37:02.941Z,70.27
2022-09-01T02:38:05.505Z,70.46
2022-09-01T02:39:08.129Z,70.86
2022-09-01T02:40:10.568Z,70.70
2022-09-01T02:41:14.677Z,71.12
2022-09-01T02:42:16.322Z,71.38
2022-09-01T02:43:20.575Z,71.45
2022-09-01T02:44:23.091Z,71.33
2022-09-01T02:45:24.736Z,71.43
2022-09-01T02:46:26.593Z,71.42
2022-09-01T02:47:28.560Z,71.01
2022-09-01T02:48:37.232Z,70.54
2022-09-01T02:49:40.745Z,70.14
2022-09-01T02:50:42.263Z,70.39
2022-09-01T02:51:46.042Z,70.16
2022-09-01T02:52:52.312Z,69.63
2022-09-01T02:53:54.278Z,69.79
2022-09-01T02:54:55.750Z,69.66
2022-09-01T02:55:59.454Z,69.57
2022-09-01T02:57:01.487Z,69.93
2022-09-01T02:58:03.717Z,70.41
2022-09-01T02:59:05.695Z,70.57
2022-09-01T03:00:20.699Z,70.43
2022-09-01T03:01:25.277Z,70.85
2022-09-01T03:02:28.827Z,70.97
2022-09-01T03:03:30.280Z,71.17
2022-09-01T03:04:35.152Z,70.73
2022-09-01T03:05:39.190Z,70.66
2022-09-01T03:06:41.226Z,70.31
2022-09-01T03:07:42.683Z,70.68
2022-09-01T03:08:44.146Z,71.26
2022-09-01T03:09:45.713Z,71.13
2022-09-01T03:10:47.366Z,71.31
2022-09-01T03:11:51.868Z,71.26
2022-09-01T03:12:54.786Z,71.26
2022-09-01T03:13:56.697Z,71.26
2022-09-01T03:14:58.484Z,71.06
2022-09-01T03:15:59.971Z,71.29
2022-09-01T03:17:01.932Z,71.40
2022-09-01T03:18:05.549Z,71.24
2022-09-01T03:19:09.478Z,71.38
2022-09-01T03:20:11.197Z,71.46
2022-09-01T03:21:17.785Z,71.17
2022-09-01T03:22:19.687Z,71.21
2022-09-01T03:23:21.210Z,71.32
2022-09-01T03:24:23.167Z,71.38
2022-09-01T03:25:25.467Z,71.70
2022-09-01T03:26:27.057Z,71.48
2022-09-01T03:27:28.994Z,71.44
2022-09-01T03:28:30.860Z,71.07
2022-09-01T03:29:32.376Z,71.56
2022-09-01T03:30:38.941Z,71.63
2022-09-01T03:31:40.477Z,71.50
2022-09-01T03:32:42.382Z,71.29
2022-09-01T03:33:44.034Z,71.53
2022-09-01T03:34:45.519Z,72.00
2022-09-01T03:35:47.972Z,71.61
2022-09-01T03:36:50.907Z,71.88
2022-09-01T03:37:52.982Z,71.78
2022-09-01T03:38:55.855Z,72.39
2022-09-01T03:39:58.162Z,72.31
2022-09-01T03:41:03.712Z,72.03
2022-09-01T03:42:05.369Z,72.46
2022-09-01T03:43:14.377Z,72.50
2022-09-01T03:44:16.457Z,72.22
2022-09-01T03:45:20.408Z,71.46
2022-09-01T03:46:22.740Z,71.13
2022-09-01T03:47:24.251Z,70.80
2022-09-01T03:48:29.405Z,71.23
2022-09-01T03:49:30.862Z,71.07
2022-09-01T03:50:32.585Z,70.78
2022-09-01T03:51:34.964Z,70.95
2022-09-01T03:52:36.998Z,71.54
2022-09-01T03:53:39.517Z,71.70
2022-09-01T03:54:41.186Z,71.91
2022-09-01T03:55:45.512Z,71.35
2022-09-01T03:56:47.779Z,70.98
2022-09-01T03:57:51.136Z,70.55
2022-09-01T03:58:54.929Z,70.46
2022-09-01T03:59:56.852Z,70.80
2022-09-01T04:01:01.954Z,70.95
2022-09-01T04:02:03.944Z,71.00
2022-09-01T04:03:07.830Z,71.17
2022-09-01T04:04:14.230Z,71.21
2022-09-01T04:05:16.201Z,71.23
2022-09-01T04:06:19.410Z,72.25
2022-09-01T04:07:20.896Z,72.60
2022-09-01T04:08:33.062Z,72.78
2022-09-01T04:09:35.317Z,72.34
2022-09-01T04:10:47.836Z,72.67
2022-09-01T04:11:55.816Z,73.01
2022-09-01T04:12:59.102Z,72.86
2022-09-01T04:14:01.750Z,73.30
2022-09-01T04:15:04.053Z,73.50
2022-09-01T04:16:10.774Z,73.34
2022-09-01T04:17:31.107Z,73.10
2022-09-01T04:18:32.894Z,73.31
2022-09-01T04:19:36.985Z,73.00
2022-09-01T04:20:48.552Z,72.46
2022-09-01T04:21:51.717Z,72.91
2022-09-01T04:22:53.508Z,72.09
2022-09-01T04:23:58.387Z,71.65
2022-09-01T04:24:59.872Z,71.98
2022-09-01T04:26:09.070Z,71.97
2022-09-01T04:27:11.943Z,71.97
2022-09-01T04:28:22.981Z,72.24
2022-09-01T04:29:28.708Z,72.00
2022-09-01T04:30:33.492Z,72.04
2022-09-01T04:31:37.988Z,72.19
2022-09-01T04:32:40.343Z,72.00
2022-09-01T04:33:44.941Z,72.10
2022-09-01T04:34:46.423Z,72.07
2022-09-01T04:35:48.122Z,71.21
2022-09-01T04:36:55.452Z,71.13
2022-09-01T04:37:56.901Z,70.87
2022-09-01T04:39:00.983Z,70.86
2022-09-01T04:40:03.676Z,71.00
2022-09-01T04:41:06.797Z,71.01
2022-09-01T04:42:09.362Z,71.33
2022-09-01T04:43:11.010Z,71.61
2022-09-01T04:44:16.304Z,71.55
2022-09-01T04:45:21.193Z,71.02
2022-09-01T04:46:23.381Z,71.15
2022-09-01T04:47:35.357Z,71.33
2022-09-01T04:48:38.444Z,70.61
2022-09-01T04:49:40.286Z,70.15
2022-09-01T04:50:41.781Z,70.06
2022-09-01T04:51:51.204Z,69.87
2022-09-01T04:52:56.375Z,69.53
2022-09-01T04:53:58.350Z,69.69
2022-09-01T04:54:59.795Z,69.59
2022-09-01T04:56:04.588Z,69.34
2022-09-01T04:57:07.077Z,69.57
2022-09-01T04:58:10.314Z,69.37
2022-09-01T04:59:14.433Z,69.50
2022-09-01T05:00:22.641Z,69.62
2022-09-01T05:01:26.761Z,69.99
2022-09-01T05:02:29.016Z,70.09
2022-09-01T05:03:32.200Z,70.16
2022-09-01T05:04:34.289Z,70.10
2022-09-01T05:05:39.808Z,70.06
2022-09-01T05:06:44.016Z,69.78
2022-09-01T05:07:45.530Z,69.78
2022-09-01T05:08:47.006Z,69.83
2022-09-01T05:09:49.557Z,69.99
2022-09-01T05:10:53.316Z,69.87
2022-09-01T05:11:56.439Z,70.17
2022-09-01T05:12:57.945Z,70.08
2022-09-01T05:13:59.438Z,70.05
2022-09-01T05:15:06.667Z,70.27
2022-09-01T05:16:12.944Z,70.28
2022-09-01T05:17:15.058Z,70.40
2022-09-01T05:18:27.778Z,70.38
2022-09-01T05:19:30.060Z,70.51
2022-09-01T05:20:32.028Z,70.93
2022-09-01T05:21:33.536Z,70.89
2022-09-01T05:22:35.653Z,70.98
2022-09-01T05:23:40.387Z,71.42
2022-09-01T05:24:42.468Z,71.64
2022-09-01T05:25:44.605Z,71.20
2022-09-01T05:26:47.495Z,70.96
2022-09-01T05:27:52.771Z,70.89
2022-09-01T05:29:01.551Z,71.40
2022-09-01T05:30:08.825Z,70.99
2022-09-01T05:31:10.611Z,70.44
2022-09-01T05:32:12.661Z,70.49
2022-09-01T05:33:21.755Z,70.21
2022-09-01T05:34:27.152Z,70.87
2022-09-01T05:35:31.684Z,70.40
2022-09-01T05:36:34.676Z,70.19
2022-09-01T05:37:40.455Z,69.97
2022-09-01T05:38:42.308Z,70.26
2022-09-01T05:39:44.279Z,69.71
2022-09-01T05:40:56.399Z,69.78
2022-09-01T05:41:59.075Z,69.14
2022-09-01T05:43:01.019Z,68.74
2022-09-01T05:44:08.145Z,68.93
2022-09-01T05:45:11.868Z,68.97
2022-09-01T05:46:16.907Z,68.69
2022-09-01T05:47:20.989Z,68.92
2022-09-01T05:48:23.707Z,69.07
2022-09-01T05:49:26.863Z,69.28
2022-09-01T05:50:28.546Z,69.96
2022-09-01T05:51:44.312Z,69.00
2022-09-01T05:52:48.113Z,68.81
2022-09-01T05:53:55.111Z,68.85
2022-09-01T05:54:57.841Z,69.18
2022-09-01T05:56:00.469Z,70.21
2022-09-01T05:57:23.315Z,70.41
2022-09-01T05:58:26.843Z,69.94
2022-09-01T05:59:31.570Z,69.77
2022-09-01T06:00:34.826Z,69.44
2022-09-01T06:01:41.017Z,68.68
2022-09-01T06:02:43.334Z,68.97
2022-09-01T06:03:45.043Z,68.72
2022-09-01T06:04:47.153Z,68.47
2022-09-01T06:05:52.775Z,68.71
2022-09-01T06:07:13.635Z,67.42
2022-09-01T06:08:18.913Z,66.49
2022-09-01T06:09:23.378Z,66.72
2022-09-01T06:10:24.920Z,66.39
2022-09-01T06:11:26.944Z,66.41
2022-09-01T06:12:29.341Z,66.14
2022-09-01T06:13:30.773Z,66.50
2022-09-01T06:14:32.665Z,66.96
2022-09-01T06:15:39.003Z,66.52
2022-09-01T06:16:40.525Z,66.09
2022-09-01T06:17:42.038Z,66.78
2022-09-01T06:18:43.793Z,66.63
2022-09-01T06:19:46.009Z,66.44
2022-09-01T06:20:49.527Z,66.26
2022-09-01T06:21:51.349Z,66.27
2022-09-01T06:22:53.626Z,65.91
2022-09-01T06:23:57.254Z,65.86
2022-09-01T06:25:02.384Z,65.54
2022-09-01T06:26:05.580Z,65.72
2022-09-01T06:27:09.928Z,65.79
2022-09-01T06:28:13.103Z,65.21
2022-09-01T06:29:15.496Z,65.71
2022-09-01T06:30:23.855Z,64.23
2022-09-01T06:31:30.174Z,64.22
2022-09-01T06:32:33.765Z,64.41
2022-09-01T06:33:36.115Z,64.28
2022-09-01T06:34:43.560Z,64.16
2022-09-01T06:35:47.171Z,63.95
2022-09-01T06:36:51.272Z,63.77
2022-09-01T06:37:53.171Z,63.25
2022-09-01T06:38:55.233Z,62.89
2022-09-01T06:39:57.601Z,62.01
2022-09-01T06:41:04.275Z,60.57
2022-09-01T06:42:06.794Z,60.93
2022-09-01T06:43:09.961Z,61.35
2022-09-01T06:44:14.560Z,60.97
2022-09-01T06:45:18.417Z,60.18
2022-09-01T06:46:21.892Z,60.68
2022-09-01T06:47:24.304Z,60.30
2022-09-01T06:48:25.850Z,60.24
2022-09-01T06:49:33.168Z,60.63
2022-09-01T06:51:56.266Z,59.30
2022-09-01T06:54:35.678Z,58.57
2022-09-01T06:55:38.581Z,58.84
2022-09-01T06:56:44.912Z,58.21
2022-09-01T06:58:09.755Z,57.92
2022-09-01T06:59:15.639Z,58.00
2022-09-01T07:00:21.144Z,57.79
2022-09-01T07:01:24.148Z,57.59
2022-09-01T07:03:51.467Z,58.60
2022-09-01T07:04:53.498Z,58.74
2022-09-01T07:06:01.393Z,58.78
2022-09-01T07:08:27.537Z,58.15
2022-09-01T07:09:47.682Z,57.58
2022-09-01T07:12:30.933Z,58.05
2022-09-01T07:13:35.537Z,57.70
2022-09-01T07:17:26.458Z,57.12
2022-09-01T07:18:29.379Z,56.82
2022-09-01T07:19:48.882Z,56.43
2022-09-01T07:23:47.323Z,55.62
2022-09-01T07:25:16.743Z,54.40
2022-09-01T07:27:50.588Z,53.11
2022-09-01T07:29:01.129Z,53.49
2022-09-01T07:30:03.466Z,53.39
2022-09-01T07:32:47.616Z,53.49
2022-09-01T07:35:14.677Z,54.05
2022-09-01T07:36:26.999Z,53.56
2022-09-01T07:42:32.152Z,56.11
2022-09-01T07:42:55.517Z,53.96
2022-09-01T07:42:56.480Z,56.04
2022-09-01T07:43:28.297Z,52.86
2022-09-01T07:44:33.404Z,53.06
2022-09-01T07:45:47.132Z,52.98
2022-09-01T07:47:19.582Z,52.65
2022-09-01T07:52:25.694Z,48.97
2022-09-01T07:53:33.329Z,48.84
2022-09-01T07:54:37.287Z,48.14
2022-09-01T07:55:44.057Z,48.51
2022-09-01T07:56:45.786Z,48.81
2022-09-01T07:57:47.525Z,47.95
2022-09-01T07:58:50.807Z,47.76
2022-09-01T07:59:55.687Z,47.60
2022-09-01T08:01:00.108Z,48.51
2022-09-01T08:02:05.266Z,48.35
2022-09-01T08:03:06.976Z,49.12
2022-09-01T08:04:08.649Z,48.23
2022-09-01T08:05:14.436Z,47.51
2022-09-01T08:06:19.458Z,47.43
2022-09-01T08:07:20.975Z,47.29
2022-09-01T08:08:26.387Z,47.97
2022-09-01T08:09:37.546Z,48.14
2022-09-01T08:10:42.096Z,47.14
2022-09-01T08:12:01.558Z,47.69
2022-09-01T08:13:03.536Z,47.65
2022-09-01T08:14:06.129Z,48.34
2022-09-01T08:16:39.324Z,46.99
2022-09-01T08:17:58.365Z,46.20
2022-09-01T08:19:00.246Z,45.98
2022-09-01T08:20:03.214Z,45.84
2022-09-01T08:21:10.033Z,46.80
2022-09-01T08:22:11.486Z,46.71
2022-09-01T08:23:18.362Z,46.37
2022-09-01T08:24:19.847Z,47.05
2022-09-01T08:25:24.744Z,46.77
2022-09-01T08:26:27.386Z,45.82
2022-09-01T08:27:28.951Z,45.42
2022-09-01T08:28:30.580Z,45.39
2022-09-01T08:29:32.326Z,45.21
2022-09-01T08:30:35.706Z,45.25
2022-09-01T08:31:37.384Z,44.84
2022-09-01T08:32:42.279Z,44.74
2022-09-01T08:33:47.353Z,44.28
2022-09-01T08:34:48.848Z,43.93
2022-09-01T08:35:50.379Z,44.15
2022-09-01T08:36:52.787Z,43.30
2022-09-01T08:37:54.303Z,44.12
2022-09-01T08:38:55.911Z,43.92
2022-09-01T08:39:57.451Z,43.12
2022-09-01T08:40:59.583Z,41.97
2022-09-01T08:42:24.725Z,42.18
2022-09-01T08:43:45.523Z,43.28
2022-09-01T08:44:56.915Z,42.69
2022-09-01T08:46:22.887Z,42.41
2022-09-01T08:47:35.449Z,42.65
2022-09-01T08:50:20.683Z,43.75
2022-09-01T08:51:25.074Z,45.46
2022-09-01T08:52:33.949Z,45.04
2022-09-01T08:53:41.704Z,45.05
2022-09-01T08:54:51.028Z,45.37
2022-09-01T08:55:56.694Z,44.57
2022-09-01T08:57:05.283Z,44.05
2022-09-01T08:58:10.390Z,45.18
2022-09-01T08:59:12.824Z,45.28
2022-09-01T09:00:20.245Z,45.19
2022-09-01T09:01:55.343Z,46.03
2022-09-01T09:03:47.670Z,45.58
2022-09-01T09:04:55.180Z,45.93
2022-09-01T09:06:21.759Z,47.27
2022-09-01T09:08:08.282Z,46.94
2022-09-01T09:09:10.595Z,48.25
2022-09-01T09:10:19.408Z,47.69
2022-09-01T09:11:34.925Z,48.23
2022-09-01T09:13:03.380Z,46.66
2022-09-01T09:14:26.092Z,47.61
2022-09-01T09:16:07.376Z,46.77
2022-09-01T09:17:09.796Z,46.40
2022-09-01T09:18:40.007Z,47.08
2022-09-01T09:19:44.590Z,45.44
2022-09-01T09:20:46.116Z,45.42
2022-09-01T09:21:50.783Z,45.37
2022-09-01T09:22:53.766Z,45.75
2022-09-01T09:24:06.754Z,45.44
2022-09-01T09:25:19.207Z,46.48
2022-09-01T09:26:22.296Z,45.25
2022-09-01T09:27:30.124Z,45.40
2022-09-01T09:28:31.672Z,45.71
2022-09-01T09:29:33.180Z,45.79
2022-09-01T09:30:34.982Z,45.50
2022-09-01T09:31:49.983Z,46.04
2022-09-01T09:34:27.708Z,44.26
2022-09-01T09:35:37.200Z,43.62
2022-09-01T09:36:38.678Z,43.75
2022-09-01T09:37:40.146Z,44.01
2022-09-01T09:38:41.772Z,43.73
2022-09-01T09:39:44.448Z,44.60
2022-09-01T09:41:16.501Z,44.80
2022-09-01T09:42:20.140Z,44.91
2022-09-01T09:43:25.482Z,44.89
2022-09-01T09:44:32.891Z,45.28
2022-09-01T09:45:42.047Z,43.37
2022-09-01T09:46:47.464Z,43.50
2022-09-01T09:47:49.578Z,43.39
2022-09-01T09:49:09.379Z,45.03
2022-09-01T09:50:23.038Z,43.21
2022-09-01T09:51:28.894Z,43.43
2022-09-01T09:52:31.194Z,43.63
2022-09-01T09:53:32.898Z,43.48
2022-09-01T09:54:37.023Z,43.93
2022-09-01T09:56:10.363Z,44.79
2022-09-01T09:57:16.159Z,44.65
2022-09-01T09:58:17.786Z,45.10
2022-09-01T09:59:57.226Z,45.89
2022-09-01T10:01:05.180Z,44.70
2022-09-01T10:02:28.398Z,45.19
2022-09-01T10:03:51.336Z,45.14
2022-09-01T10:04:55.816Z,46.04
2022-09-01T10:05:57.576Z,45.89
2022-09-01T10:06:59.154Z,45.82
2022-09-01T10:08:01.034Z,45.37
2022-09-01T10:09:15.025Z,44.56
2022-09-01T10:10:40.415Z,45.06
2022-09-01T10:11:51.485Z,44.57
2022-09-01T10:12:54.338Z,44.87
2022-09-01T10:13:56.086Z,45.10
2022-09-01T10:15:12.732Z,45.59
2022-09-01T10:16:32.027Z,44.92
2022-09-01T10:17:43.696Z,45.06
2022-09-01T10:18:46.566Z,44.90
2022-09-01T10:19:55.758Z,45.57
2022-09-01T10:20:57.212Z,45.79
2022-09-01T10:21:58.753Z,45.33
2022-09-01T10:23:03.813Z,44.54
2022-09-01T10:24:30.949Z,44.16
2022-09-01T10:25:35.764Z,43.56
2022-09-01T10:26:41.018Z,43.98
2022-09-01T10:27:47.576Z,42.94
2022-09-01T10:29:25.629Z,42.36
2022-09-01T10:30:29.228Z,43.09
2022-09-01T10:31:32.747Z,42.89
2022-09-01T10:32:49.196Z,43.79
2022-09-01T10:33:53.051Z,43.57
2022-09-01T10:34:56.171Z,43.09
2022-09-01T10:36:01.222Z,43.20
2022-09-01T10:37:11.408Z,44.19
2022-09-01T10:38:20.652Z,44.48
2022-09-01T10:39:28.432Z,44.72
2022-09-01T10:40:44.593Z,44.15
2022-09-01T10:42:00.194Z,44.01
2022-09-01T10:43:30.677Z,43.85
2022-09-01T10:44:56.247Z,44.46
2022-09-01T10:46:06.002Z,44.83
2022-09-01T10:47:30.092Z,44.00
2022-09-01T10:48:45.485Z,44.46
2022-09-01T10:49:47.979Z,42.49
2022-09-01T10:51:09.696Z,42.53
2022-09-01T10:52:41.199Z,42.14
2022-09-01T10:53:54.237Z,42.23
2022-09-01T10:55:01.191Z,42.60
2022-09-01T10:56:20.138Z,41.93
2022-09-01T10:57:42.389Z,41.28
2022-09-01T11:00:41.473Z,42.06
2022-09-01T11:01:48.898Z,42.47
2022-09-01T11:04:37.282Z,42.61
2022-09-01T11:06:13.201Z,43.17
2022-09-01T11:07:29.653Z,42.59
2022-09-01T11:08:57.003Z,43.32
2022-09-01T11:10:36.083Z,42.34
2022-09-01T11:11:48.913Z,42.58
2022-09-01T11:13:04.828Z,41.76
2022-09-01T11:14:22.947Z,42.17
2022-09-01T11:15:41.220Z,42.85
2022-09-01T11:16:47.806Z,42.95
2022-09-01T11:17:50.589Z,43.06
2022-09-01T11:18:52.574Z,43.38
2022-09-01T11:19:55.522Z,42.79
2022-09-01T11:21:23.927Z,42.31
2022-09-01T11:22:28.265Z,42.98
2022-09-01T11:23:31.425Z,42.73
2022-09-01T11:24:38.867Z,42.23
2022-09-01T11:25:48.502Z,41.39
2022-09-01T11:27:13.007Z,41.94
2022-09-01T11:28:23.822Z,42.99
2022-09-01T11:29:55.922Z,42.81
2022-09-01T11:31:06.603Z,43.05
2022-09-01T11:32:09.172Z,43.64
2022-09-01T11:33:16.560Z,43.79
2022-09-01T11:34:20.427Z,43.91
2022-09-01T11:35:25.402Z,44.22
2022-09-01T11:36:37.743Z,43.25
2022-09-01T11:37:40.326Z,43.10
2022-09-01T11:38:55.228Z,43.41
2022-09-01T11:40:07.778Z,44.42
2022-09-01T11:41:09.416Z,43.70
2022-09-01T11:42:32.394Z,43.93
2022-09-01T11:43:35.929Z,43.95
2022-09-01T11:44:59.301Z,44.75
2022-09-01T11:46:22.007Z,44.41
2022-09-01T11:47:30.027Z,44.03
2022-09-01T11:48:31.597Z,44.69
2022-09-01T11:49:40.326Z,44.30
2022-09-01T11:50:43.051Z,44.02
2022-09-01T11:51:47.975Z,44.37
2022-09-01T11:52:59.140Z,44.58
2022-09-01T11:54:02.949Z,44.56
2022-09-01T11:55:07.088Z,44.36
2022-09-01T11:56:28.078Z,43.35
2022-09-01T11:57:29.995Z,43.32
2022-09-01T11:58:39.115Z,43.43
2022-09-01T11:59:40.619Z,43.47
2022-09-01T12:00:42.621Z,44.53
2022-09-01T12:01:44.665Z,43.74
2022-09-01T12:02:49.987Z,43.99
2022-09-01T12:03:52.870Z,44.29
2022-09-01T12:04:55.445Z,44.69
2022-09-01T12:06:05.988Z,44.86
2022-09-01T12:07:11.419Z,44.97
2022-09-01T12:08:18.338Z,44.73
2022-09-01T12:09:41.564Z,45.01
2022-09-01T12:10:45.395Z,44.81
2022-09-01T12:11:46.881Z,44.88
2022-09-01T12:12:48.490Z,45.41
2022-09-01T12:14:10.360Z,45.41
2022-09-01T12:15:23.028Z,45.19
2022-09-01T12:16:24.639Z,45.22
2022-09-01T12:17:27.077Z,45.40
2022-09-01T12:18:35.913Z,45.14
2022-09-01T12:19:39.395Z,45.19
2022-09-01T12:20:41.299Z,45.33
2022-09-01T12:21:43.986Z,45.02
2022-09-01T12:22:46.031Z,44.86
2022-09-01T12:23:47.995Z,44.35
2022-09-01T12:24:53.178Z,44.19
2022-09-01T12:26:01.379Z,43.55
2022-09-01T12:27:03.326Z,43.50
2022-09-01T12:28:10.995Z,42.77
2022-09-01T12:29:16.650Z,42.85
2022-09-01T12:30:19.780Z,43.15
2022-09-01T12:31:26.823Z,43.59
2022-09-01T12:32:28.547Z,43.57
2022-09-01T12:33:30.429Z,44.30
2022-09-01T12:34:42.780Z,44.17
2022-09-01T12:35:45.448Z,44.42
2022-09-01T12:37:08.249Z,44.12
2022-09-01T12:38:18.784Z,44.59
2022-09-01T12:39:24.274Z,44.44
2022-09-01T12:40:35.986Z,44.64
2022-09-01T12:41:40.034Z,43.36
2022-09-01T12:42:49.940Z,43.49
2022-09-01T12:43:54.769Z,43.73
2022-09-01T12:44:58.659Z,43.39
2022-09-01T12:46:02.890Z,43.69
2022-09-01T12:47:13.575Z,43.20
2022-09-01T12:48:33.863Z,44.34
2022-09-01T12:49:50.661Z,44.96
2022-09-01T12:50:53.711Z,45.08
2022-09-01T12:52:14.692Z,45.00
2022-09-01T12:53:20.653Z,44.94
2022-09-01T12:54:26.158Z,44.36
2022-09-01T12:55:47.660Z,44.66
2022-09-01T12:56:51.401Z,44.50
2022-09-01T12:57:55.650Z,44.49
2022-09-01T12:59:15.792Z,44.80
2022-09-01T13:00:23.262Z,43.90
2022-09-01T13:01:30.685Z,44.15
2022-09-01T13:02:36.866Z,44.61
2022-09-01T13:03:38.636Z,45.15
2022-09-01T13:04:42.383Z,44.87
2022-09-01T13:05:47.161Z,45.21
2022-09-01T13:06:49.837Z,45.48
2022-09-01T13:07:56.890Z,43.94
2022-09-01T13:08:58.386Z,44.13
2022-09-01T13:10:00.349Z,44.30
2022-09-01T13:11:03.782Z,43.63
2022-09-01T13:12:21.781Z,41.91
2022-09-01T13:13:25.268Z,42.26
2022-09-01T13:14:26.790Z,43.05
2022-09-01T13:15:28.746Z,42.35
2022-09-01T13:16:30.482Z,42.39
2022-09-01T13:17:32.396Z,43.28
2022-09-01T13:19:10.373Z,43.13
2022-09-01T13:19:55.800Z,41.80
2022-09-01T13:20:58.480Z,41.93
2022-09-01T13:22:00.359Z,42.03
2022-09-01T13:23:02.398Z,41.82
2022-09-01T13:24:07.228Z,42.65
2022-09-01T13:25:11.297Z,43.61
2022-09-01T13:26:12.752Z,42.99
2022-09-01T13:27:22.540Z,42.00
2022-09-01T13:29:32.421Z,42.53
2022-09-01T13:30:34.447Z,42.56
2022-09-01T13:31:36.371Z,41.93
2022-09-01T13:33:18.739Z,41.82
2022-09-01T13:34:21.968Z,41.96
2022-09-01T13:35:23.084Z,40.53
2022-09-01T13:37:47.425Z,40.23
2022-09-01T13:38:50.736Z,39.94
2022-09-01T13:39:57.401Z,41.70
2022-09-01T13:41:02.121Z,41.06
2022-09-01T13:42:03.671Z,39.31
2022-09-01T13:43:06.214Z,38.84
2022-09-01T13:44:09.944Z,38.85
2022-09-01T13:45:13.567Z,38.99
2022-09-01T13:46:15.165Z,39.86
2022-09-01T13:47:32.058Z,38.49
2022-09-01T13:50:13.510Z,38.37
2022-09-01T13:51:28.607Z,39.11
2022-09-01T13:52:30.067Z,39.00
2022-09-01T13:53:31.783Z,38.81
2022-09-01T13:54:33.466Z,38.15
2022-09-01T13:55:39.694Z,37.52
2022-09-01T13:56:41.196Z,36.63
2022-09-01T13:57:42.682Z,36.45
2022-09-01T13:58:44.167Z,35.17
2022-09-01T13:59:47.811Z,35.97
2022-09-01T14:00:51.256Z,35.83
2022-09-01T14:01:53.162Z,36.28
2022-09-01T14:02:56.989Z,35.97
2022-09-01T14:04:00.518Z,35.92
2022-09-01T14:05:02.558Z,35.00
2022-09-01T14:06:06.062Z,35.76
2022-09-01T14:07:07.587Z,35.40
2022-09-01T14:08:11.060Z,36.19
2022-09-01T14:09:17.482Z,35.50
2022-09-01T14:10:20.906Z,34.91
2022-09-01T14:11:22.551Z,34.44
2022-09-01T14:12:24.406Z,32.69
2022-09-01T14:13:27.641Z,32.96
2022-09-01T14:15:10.993Z,33.26
2022-09-01T14:15:53.421Z,32.15
2022-09-01T14:16:55.100Z,32.65
2022-09-01T14:17:58.126Z,33.08
2022-09-01T14:19:02.602Z,32.90
2022-09-01T14:20:06.959Z,34.00
2022-09-01T14:21:16.061Z,33.35
2022-09-01T14:22:17.664Z,33.27
2022-09-01T14:23:20.180Z,33.18
2022-09-01T14:24:22.331Z,32.97
2022-09-01T14:25:24.346Z,32.70
2022-09-01T14:26:28.241Z,32.84
2022-09-01T14:27:29.776Z,33.72
2022-09-01T14:28:31.262Z,33.70
2022-09-01T14:29:32.761Z,33.89
2022-09-01T14:30:34.476Z,34.79
2022-09-01T14:31:38.101Z,34.50
2022-09-01T14:32:39.815Z,34.68
2022-09-01T14:33:42.189Z,35.87
2022-09-01T14:34:45.090Z,35.19
2022-09-01T14:35:48.523Z,34.66
2022-09-01T14:36:53.018Z,35.00
2022-09-01T14:37:55.809Z,36.15
2022-09-01T14:38:57.182Z,35.73
2022-09-01T14:39:58.665Z,35.81
2022-09-01T14:41:01.106Z,36.19
2022-09-01T14:42:04.033Z,36.02
2022-09-01T14:43:09.698Z,35.99
2022-09-01T14:44:11.212Z,35.76
2022-09-01T14:45:15.561Z,35.49
2022-09-01T14:46:20.235Z,37.08
2022-09-01T14:47:25.096Z,37.41
2022-09-01T14:48:26.580Z,37.43
2022-09-01T14:49:33.306Z,37.35